Alto, NM

11:36 AM MST on February 10, 2016 (GMT -0700)
Eagle Creek Canyon | | Change Station
CLOSE
Current Station
Personal Weather Station
Location: Ruidoso, NM
Elevation: 7200 ft
Nearby Weather Stations

Elev 7200 ft 33.39 °N, 105.65 °W | Updated 11 seconds ago

Clear
Clear
62.3 °F
Feels Like 62.3 °F
N
0.0
Wind Variable Wind from West
Gusts 5.0 mph

Today
High -- | Low -- °F
--% Chance of Precip.
Yesterday
High -- | Low -- °F
Precip. -- in
Pressure 30.43 in
Visibility 10.0 miles
Clouds
Dew Point 18 °F
Humidity 18%
Rainfall 0.00 in
Snow Depth Not available.
6:51 AM 5:42 PM
Waxing Crescent, 6% visible
METAR KSRR 101815Z AUTO 31011G19KT 040V040 10SM 14/M08 A3043 RMK AO2
Pressure 30.43 in
Visibility 10.0 miles
Clouds
Dew Point 18 °F
Humidity 18%
Rainfall 0.00 in
Snow Depth Not available.
6:51 AM 5:42 PM
Waxing Crescent, 6% visible
METAR KSRR 101815Z AUTO 31011G19KT 040V040 10SM 14/M08 A3043 RMK AO2

10-Day Weather Forecast

Almanac

Astronomy

Feb. 10, 2016 Rise Set
Actual Time
Civil Twilight
Nautical Twilight
Astronomical Twilight
Moon
Length of Visible Light
Length of Day
Tomorrow will be .
, % of the Moon is Illuminated

Today's Extremes

State Highs State Lows

Community

WunderPhotos

Upload Photos

1,891,914 photos uploaded!

WunderBlog® & News

Nearby

Air Quality

  Air Quality AQ Index Pollutant
Not available.

Snow Depth

Station Depth Elevation

Earthquake Activity

City Distance Mag. Time & Date
Minimum magnitude displayed is 2.5.

Coastal Water Temperatures

Place Temperature

Stations

Nearby Weather Stations

Station Location Temp. Windchill Dew Point Humidity Wind Precip. Elev Updated Type
                   

Watches & Warnings

There are currently no watches in effect.